sensor_id;sensor_type;location;lat;lon;timestamp;P1;durP1;ratioP1;P2;durP2;ratioP2
7255;SDS011;3669;49.200;9.242;2022-11-20T00:01:17;11.98;;;10.77;;
7255;SDS011;3669;49.200;9.242;2022-11-20T00:03:44;11.50;;;10.25;;
7255;SDS011;3669;49.200;9.242;2022-11-20T00:06:12;11.30;;;10.20;;
7255;SDS011;3669;49.200;9.242;2022-11-20T00:08:40;18.88;;;17.40;;
7255;SDS011;3669;49.200;9.242;2022-11-20T00:11:08;12.00;;;10.80;;
7255;SDS011;3669;49.200;9.242;2022-11-20T00:13:36;10.95;;;9.85;;
7255;SDS011;3669;49.200;9.242;2022-11-20T00:16:03;11.50;;;10.40;;
7255;SDS011;3669;49.200;9.242;2022-11-20T00:18:30;11.38;;;10.20;;
7255;SDS011;3669;49.200;9.242;2022-11-20T00:21:06;11.63;;;10.43;;
7255;SDS011;3669;49.200;9.242;2022-11-20T00:23:33;11.27;;;10.15;;
7255;SDS011;3669;49.200;9.242;2022-11-20T00:26:05;10.63;;;9.63;;
7255;SDS011;3669;49.200;9.242;2022-11-20T00:28:32;11.05;;;9.95;;
7255;SDS011;3669;49.200;9.242;2022-11-20T00:31:07;11.27;;;10.18;;
7255;SDS011;3669;49.200;9.242;2022-11-20T00:33:34;11.10;;;10.07;;
7255;SDS011;3669;49.200;9.242;2022-11-20T00:36:02;10.63;;;9.63;;
7255;SDS011;3669;49.200;9.242;2022-11-20T00:38:33;10.70;;;9.70;;
7255;SDS011;3669;49.200;9.242;2022-11-20T00:41:02;10.55;;;9.45;;
7255;SDS011;3669;49.200;9.242;2022-11-20T00:43:29;11.45;;;10.35;;
7255;SDS011;3669;49.200;9.242;2022-11-20T00:46:04;11.30;;;10.25;;
7255;SDS011;3669;49.200;9.242;2022-11-20T00:48:31;10.30;;;9.30;;
7255;SDS011;3669;49.200;9.242;2022-11-20T00:50:58;10.60;;;9.60;;
7255;SDS011;3669;49.200;9.242;2022-11-20T00:53:26;9.75;;;8.85;;
7255;SDS011;3669;49.200;9.242;2022-11-20T00:55:57;9.93;;;8.93;;
7255;SDS011;3669;49.200;9.242;2022-11-20T00:58:28;9.55;;;8.68;;
7255;SDS011;3669;49.200;9.242;2022-11-20T01:01:15;9.40;;;8.48;;
7255;SDS011;3669;49.200;9.242;2022-11-20T01:03:45;9.27;;;8.38;;
7255;SDS011;3669;49.200;9.242;2022-11-20T01:06:14;9.82;;;8.93;;
7255;SDS011;3669;49.200;9.242;2022-11-20T01:08:41;14.43;;;13.27;;
7255;SDS011;3669;49.200;9.242;2022-11-20T01:11:12;10.75;;;9.65;;
7255;SDS011;3669;49.200;9.242;2022-11-20T01:13:41;9.73;;;8.82;;
7255;SDS011;3669;49.200;9.242;2022-11-20T01:16:10;9.70;;;8.80;;
7255;SDS011;3669;49.200;9.242;2022-11-20T01:18:38;9.80;;;8.88;;
7255;SDS011;3669;49.200;9.242;2022-11-20T01:21:06;9.38;;;8.48;;
7255;SDS011;3669;49.200;9.242;2022-11-20T01:23:34;9.85;;;8.85;;
7255;SDS011;3669;49.200;9.242;2022-11-20T01:26:03;9.23;;;8.43;;
7255;SDS011;3669;49.200;9.242;2022-11-20T01:28:30;9.40;;;8.50;;
7255;SDS011;3669;49.200;9.242;2022-11-20T01:30:57;8.65;;;7.85;;
7255;SDS011;3669;49.200;9.242;2022-11-20T01:33:25;9.05;;;8.25;;
7255;SDS011;3669;49.200;9.242;2022-11-20T01:35:52;9.25;;;8.35;;
7255;SDS011;3669;49.200;9.242;2022-11-20T01:38:19;9.05;;;8.18;;
7255;SDS011;3669;49.200;9.242;2022-11-20T01:40:54;9.13;;;8.23;;
7255;SDS011;3669;49.200;9.242;2022-11-20T01:43:22;8.77;;;7.97;;
7255;SDS011;3669;49.200;9.242;2022-11-20T01:45:56;8.52;;;7.72;;
7255;SDS011;3669;49.200;9.242;2022-11-20T01:48:25;8.60;;;7.80;;
7255;SDS011;3669;49.200;9.242;2022-11-20T01:50:53;8.45;;;7.65;;
7255;SDS011;3669;49.200;9.242;2022-11-20T01:53:21;9.52;;;8.63;;
7255;SDS011;3669;49.200;9.242;2022-11-20T01:55:51;8.00;;;7.20;;
7255;SDS011;3669;49.200;9.242;2022-11-20T01:58:19;8.68;;;7.88;;
7255;SDS011;3669;49.200;9.242;2022-11-20T02:00:47;8.77;;;7.97;;
7255;SDS011;3669;49.200;9.242;2022-11-20T02:03:15;30.63;;;28.65;;
7255;SDS011;3669;49.200;9.242;2022-11-20T02:08:28;32.90;;;30.63;;
7255;SDS011;3669;49.200;9.242;2022-11-20T02:10:55;35.72;;;33.47;;
7255;SDS011;3669;49.200;9.242;2022-11-20T02:13:21;52.83;;;49.72;;
7255;SDS011;3669;49.200;9.242;2022-11-20T02:16:21;33.58;;;31.60;;
7255;SDS011;3669;49.200;9.242;2022-11-20T02:18:50;10.23;;;8.48;;
7255;SDS011;3669;49.200;9.242;2022-11-20T02:24:04;39.90;;;37.55;;
7255;SDS011;3669;49.200;9.242;2022-11-20T02:26:33;39.95;;;37.58;;
7255;SDS011;3669;49.200;9.242;2022-11-20T02:29:00;32.53;;;30.50;;
7255;SDS011;3669;49.200;9.242;2022-11-20T02:31:28;32.95;;;30.77;;
7255;SDS011;3669;49.200;9.242;2022-11-20T02:33:56;35.22;;;33.10;;
7255;SDS011;3669;49.200;9.242;2022-11-20T02:36:24;33.28;;;31.30;;
7255;SDS011;3669;49.200;9.242;2022-11-20T02:38:53;26.83;;;24.95;;
7255;SDS011;3669;49.200;9.242;2022-11-20T02:41:20;18.15;;;16.88;;
7255;SDS011;3669;49.200;9.242;2022-11-20T02:43:47;9.40;;;8.48;;
7255;SDS011;3669;49.200;9.242;2022-11-20T02:46:14;9.10;;;8.25;;
7255;SDS011;3669;49.200;9.242;2022-11-20T02:48:41;8.98;;;8.10;;
7255;SDS011;3669;49.200;9.242;2022-11-20T02:51:08;9.38;;;8.48;;
7255;SDS011;3669;49.200;9.242;2022-11-20T02:53:35;9.68;;;8.68;;
7255;SDS011;3669;49.200;9.242;2022-11-20T02:56:02;9.43;;;8.52;;
7255;SDS011;3669;49.200;9.242;2022-11-20T02:58:29;9.15;;;8.35;;
7255;SDS011;3669;49.200;9.242;2022-11-20T03:00:56;9.60;;;8.65;;
7255;SDS011;3669;49.200;9.242;2022-11-20T03:03:23;9.60;;;8.70;;
7255;SDS011;3669;49.200;9.242;2022-11-20T03:05:50;9.50;;;8.60;;
7255;SDS011;3669;49.200;9.242;2022-11-20T03:08:18;9.65;;;8.70;;
7255;SDS011;3669;49.200;9.242;2022-11-20T03:10:45;9.85;;;8.85;;
7255;SDS011;3669;49.200;9.242;2022-11-20T03:13:12;9.10;;;8.20;;
7255;SDS011;3669;49.200;9.242;2022-11-20T03:15:39;9.18;;;8.13;;
7255;SDS011;3669;49.200;9.242;2022-11-20T03:18:06;9.75;;;8.73;;
7255;SDS011;3669;49.200;9.242;2022-11-20T03:20:33;9.30;;;8.38;;
7255;SDS011;3669;49.200;9.242;2022-11-20T03:23:00;9.40;;;8.50;;
7255;SDS011;3669;49.200;9.242;2022-11-20T03:25:29;9.27;;;8.38;;
7255;SDS011;3669;49.200;9.242;2022-11-20T03:27:57;9.32;;;8.35;;
7255;SDS011;3669;49.200;9.242;2022-11-20T03:30:24;10.25;;;9.20;;
7255;SDS011;3669;49.200;9.242;2022-11-20T03:32:52;9.80;;;8.25;;
7255;SDS011;3669;49.200;9.242;2022-11-20T03:35:19;9.10;;;8.20;;
7255;SDS011;3669;49.200;9.242;2022-11-20T03:37:46;10.40;;;9.35;;
7255;SDS011;3669;49.200;9.242;2022-11-20T03:40:14;10.15;;;9.15;;
7255;SDS011;3669;49.200;9.242;2022-11-20T03:42:41;9.23;;;8.32;;
7255;SDS011;3669;49.200;9.242;2022-11-20T03:45:12;10.63;;;9.52;;
7255;SDS011;3669;49.200;9.242;2022-11-20T03:47:39;9.50;;;8.63;;
7255;SDS011;3669;49.200;9.242;2022-11-20T03:50:07;9.70;;;8.70;;
7255;SDS011;3669;49.200;9.242;2022-11-20T03:52:35;9.45;;;8.45;;
7255;SDS011;3669;49.200;9.242;2022-11-20T03:55:02;10.02;;;9.02;;
7255;SDS011;3669;49.200;9.242;2022-11-20T03:57:29;9.73;;;8.82;;
7255;SDS011;3669;49.200;9.242;2022-11-20T03:59:56;9.38;;;8.48;;
7255;SDS011;3669;49.200;9.242;2022-11-20T04:02:23;10.40;;;9.40;;
7255;SDS011;3669;49.200;9.242;2022-11-20T04:04:50;9.88;;;8.88;;
7255;SDS011;3669;49.200;9.242;2022-11-20T04:07:17;10.85;;;9.43;;
7255;SDS011;3669;49.200;9.242;2022-11-20T04:09:44;9.70;;;8.73;;
7255;SDS011;3669;49.200;9.242;2022-11-20T04:12:11;10.10;;;9.10;;
7255;SDS011;3669;49.200;9.242;2022-11-20T04:14:38;9.60;;;8.60;;
7255;SDS011;3669;49.200;9.242;2022-11-20T04:17:05;9.63;;;8.73;;
7255;SDS011;3669;49.200;9.242;2022-11-20T04:19:32;21.33;;;19.90;;
7255;SDS011;3669;49.200;9.242;2022-11-20T04:21:59;31.13;;;29.33;;
7255;SDS011;3669;49.200;9.242;2022-11-20T04:24:26;32.55;;;30.63;;
7255;SDS011;3669;49.200;9.242;2022-11-20T04:26:53;34.58;;;32.60;;
7255;SDS011;3669;49.200;9.242;2022-11-20T04:29:19;38.72;;;36.42;;
7255;SDS011;3669;49.200;9.242;2022-11-20T04:31:46;23.75;;;22.10;;
7255;SDS011;3669;49.200;9.242;2022-11-20T04:34:13;10.43;;;9.52;;
7255;SDS011;3669;49.200;9.242;2022-11-20T04:36:40;9.55;;;8.65;;
7255;SDS011;3669;49.200;9.242;2022-11-20T04:39:11;10.07;;;8.98;;
7255;SDS011;3669;49.200;9.242;2022-11-20T04:41:41;9.88;;;8.98;;
7255;SDS011;3669;49.200;9.242;2022-11-20T04:44:08;9.60;;;8.70;;
7255;SDS011;3669;49.200;9.242;2022-11-20T04:46:36;8.63;;;7.75;;
7255;SDS011;3669;49.200;9.242;2022-11-20T04:49:03;9.13;;;8.23;;
7255;SDS011;3669;49.200;9.242;2022-11-20T04:51:30;10.00;;;9.10;;
7255;SDS011;3669;49.200;9.242;2022-11-20T04:53:58;9.27;;;8.30;;
7255;SDS011;3669;49.200;9.242;2022-11-20T04:56:25;8.75;;;7.95;;
7255;SDS011;3669;49.200;9.242;2022-11-20T04:58:52;9.23;;;8.32;;
7255;SDS011;3669;49.200;9.242;2022-11-20T05:01:20;8.50;;;7.70;;
7255;SDS011;3669;49.200;9.242;2022-11-20T05:03:48;9.32;;;8.32;;
7255;SDS011;3669;49.200;9.242;2022-11-20T05:06:16;9.00;;;8.20;;
7255;SDS011;3669;49.200;9.242;2022-11-20T05:08:43;14.95;;;13.82;;
7255;SDS011;3669;49.200;9.242;2022-11-20T05:11:12;9.13;;;8.23;;
7255;SDS011;3669;49.200;9.242;2022-11-20T05:13:39;10.30;;;9.40;;
7255;SDS011;3669;49.200;9.242;2022-11-20T05:16:07;9.32;;;8.43;;
7255;SDS011;3669;49.200;9.242;2022-11-20T05:18:35;9.38;;;8.48;;
7255;SDS011;3669;49.200;9.242;2022-11-20T05:21:03;9.07;;;8.18;;
7255;SDS011;3669;49.200;9.242;2022-11-20T05:23:31;8.65;;;7.85;;
7255;SDS011;3669;49.200;9.242;2022-11-20T05:25:58;9.98;;;9.05;;
7255;SDS011;3669;49.200;9.242;2022-11-20T05:28:27;10.40;;;9.30;;
7255;SDS011;3669;49.200;9.242;2022-11-20T05:30:54;10.25;;;9.25;;
7255;SDS011;3669;49.200;9.242;2022-11-20T05:33:21;9.05;;;8.20;;
7255;SDS011;3669;49.200;9.242;2022-11-20T05:35:48;9.55;;;8.65;;
7255;SDS011;3669;49.200;9.242;2022-11-20T05:38:15;8.95;;;8.15;;
7255;SDS011;3669;49.200;9.242;2022-11-20T05:40:42;9.30;;;8.40;;
7255;SDS011;3669;49.200;9.242;2022-11-20T05:43:09;8.93;;;8.02;;
7255;SDS011;3669;49.200;9.242;2022-11-20T05:45:36;9.38;;;8.48;;
7255;SDS011;3669;49.200;9.242;2022-11-20T05:48:03;8.55;;;7.80;;
7255;SDS011;3669;49.200;9.242;2022-11-20T05:50:30;8.73;;;7.95;;
7255;SDS011;3669;49.200;9.242;2022-11-20T05:52:58;8.73;;;7.82;;
7255;SDS011;3669;49.200;9.242;2022-11-20T05:55:26;9.18;;;8.32;;
7255;SDS011;3669;49.200;9.242;2022-11-20T05:57:53;9.82;;;8.88;;
7255;SDS011;3669;49.200;9.242;2022-11-20T06:00:20;16.30;;;15.13;;
7255;SDS011;3669;49.200;9.242;2022-11-20T06:02:47;34.05;;;32.10;;
7255;SDS011;3669;49.200;9.242;2022-11-20T06:05:14;32.17;;;30.23;;
7255;SDS011;3669;49.200;9.242;2022-11-20T06:07:41;28.77;;;26.90;;
7255;SDS011;3669;49.200;9.242;2022-11-20T06:10:08;33.95;;;31.98;;
7255;SDS011;3669;49.200;9.242;2022-11-20T06:12:35;27.73;;;26.02;;
7255;SDS011;3669;49.200;9.242;2022-11-20T06:15:03;19.88;;;18.45;;
7255;SDS011;3669;49.200;9.242;2022-11-20T06:17:29;13.70;;;12.57;;
7255;SDS011;3669;49.200;9.242;2022-11-20T06:19:56;9.32;;;8.43;;
7255;SDS011;3669;49.200;9.242;2022-11-20T06:22:23;9.43;;;8.45;;
7255;SDS011;3669;49.200;9.242;2022-11-20T06:24:50;9.50;;;8.50;;
7255;SDS011;3669;49.200;9.242;2022-11-20T06:27:17;8.55;;;7.65;;
7255;SDS011;3669;49.200;9.242;2022-11-20T06:29:44;8.15;;;7.43;;
7255;SDS011;3669;49.200;9.242;2022-11-20T06:32:12;8.40;;;7.65;;
7255;SDS011;3669;49.200;9.242;2022-11-20T06:34:39;8.07;;;7.38;;
7255;SDS011;3669;49.200;9.242;2022-11-20T06:37:06;8.48;;;7.78;;
7255;SDS011;3669;49.200;9.242;2022-11-20T06:39:33;8.07;;;7.38;;
7255;SDS011;3669;49.200;9.242;2022-11-20T06:42:00;8.68;;;7.88;;
7255;SDS011;3669;49.200;9.242;2022-11-20T06:44:27;8.32;;;7.53;;
7255;SDS011;3669;49.200;9.242;2022-11-20T06:46:55;8.75;;;7.85;;
7255;SDS011;3669;49.200;9.242;2022-11-20T06:49:22;7.60;;;6.93;;
7255;SDS011;3669;49.200;9.242;2022-11-20T06:51:49;8.45;;;7.55;;
7255;SDS011;3669;49.200;9.242;2022-11-20T06:54:16;8.20;;;7.50;;
7255;SDS011;3669;49.200;9.242;2022-11-20T06:56:46;7.97;;;7.20;;
7255;SDS011;3669;49.200;9.242;2022-11-20T06:59:13;6.68;;;6.07;;
7255;SDS011;3669;49.200;9.242;2022-11-20T07:01:40;8.05;;;7.32;;
7255;SDS011;3669;49.200;9.242;2022-11-20T07:04:08;7.68;;;6.90;;
7255;SDS011;3669;49.200;9.242;2022-11-20T07:06:35;7.88;;;7.07;;
7255;SDS011;3669;49.200;9.242;2022-11-20T07:09:02;19.65;;;18.25;;
7255;SDS011;3669;49.200;9.242;2022-11-20T07:11:29;7.40;;;6.70;;
7255;SDS011;3669;49.200;9.242;2022-11-20T07:13:56;7.22;;;6.63;;
7255;SDS011;3669;49.200;9.242;2022-11-20T07:16:24;6.28;;;5.78;;
7255;SDS011;3669;49.200;9.242;2022-11-20T07:18:51;7.40;;;6.70;;
7255;SDS011;3669;49.200;9.242;2022-11-20T07:21:18;7.50;;;6.72;;
7255;SDS011;3669;49.200;9.242;2022-11-20T07:23:45;6.40;;;5.80;;
7255;SDS011;3669;49.200;9.242;2022-11-20T07:26:13;6.88;;;6.38;;
7255;SDS011;3669;49.200;9.242;2022-11-20T07:28:43;7.13;;;6.53;;
7255;SDS011;3669;49.200;9.242;2022-11-20T07:31:11;7.88;;;6.15;;
7255;SDS011;3669;49.200;9.242;2022-11-20T07:33:38;6.47;;;5.88;;
7255;SDS011;3669;49.200;9.242;2022-11-20T07:36:05;6.38;;;5.88;;
7255;SDS011;3669;49.200;9.242;2022-11-20T07:38:33;6.93;;;6.32;;
7255;SDS011;3669;49.200;9.242;2022-11-20T07:41:00;7.07;;;6.47;;
7255;SDS011;3669;49.200;9.242;2022-11-20T07:43:28;7.00;;;6.40;;
7255;SDS011;3669;49.200;9.242;2022-11-20T07:45:55;7.05;;;6.45;;
7255;SDS011;3669;49.200;9.242;2022-11-20T07:48:23;6.68;;;6.07;;
7255;SDS011;3669;49.200;9.242;2022-11-20T07:50:54;6.20;;;5.60;;
7255;SDS011;3669;49.200;9.242;2022-11-20T07:53:22;6.65;;;6.07;;
7255;SDS011;3669;49.200;9.242;2022-11-20T07:55:49;6.90;;;6.30;;
7255;SDS011;3669;49.200;9.242;2022-11-20T07:58:20;6.65;;;6.10;;
7255;SDS011;3669;49.200;9.242;2022-11-20T08:00:47;6.60;;;6.00;;
7255;SDS011;3669;49.200;9.242;2022-11-20T08:03:14;6.13;;;5.63;;
7255;SDS011;3669;49.200;9.242;2022-11-20T08:05:41;6.47;;;5.97;;
7255;SDS011;3669;49.200;9.242;2022-11-20T08:08:08;8.68;;;7.97;;
7255;SDS011;3669;49.200;9.242;2022-11-20T08:10:35;26.00;;;24.38;;
7255;SDS011;3669;49.200;9.242;2022-11-20T08:13:01;55.22;;;52.13;;
7255;SDS011;3669;49.200;9.242;2022-11-20T08:16:04;6.38;;;5.82;;
7255;SDS011;3669;49.200;9.242;2022-11-20T08:18:32;10.25;;;9.48;;
7255;SDS011;3669;49.200;9.242;2022-11-20T08:21:03;27.70;;;26.02;;
7255;SDS011;3669;49.200;9.242;2022-11-20T08:23:30;25.25;;;23.70;;
7255;SDS011;3669;49.200;9.242;2022-11-20T08:25:57;27.63;;;26.15;;
7255;SDS011;3669;49.200;9.242;2022-11-20T08:28:23;34.65;;;32.70;;
7255;SDS011;3669;49.200;9.242;2022-11-20T08:30:50;31.25;;;29.48;;
7255;SDS011;3669;49.200;9.242;2022-11-20T08:33:17;27.38;;;25.70;;
7255;SDS011;3669;49.200;9.242;2022-11-20T08:35:44;18.42;;;17.38;;
7255;SDS011;3669;49.200;9.242;2022-11-20T08:38:11;6.43;;;5.90;;
7255;SDS011;3669;49.200;9.242;2022-11-20T08:40:38;5.22;;;4.82;;
7255;SDS011;3669;49.200;9.242;2022-11-20T08:43:05;5.70;;;5.15;;
7255;SDS011;3669;49.200;9.242;2022-11-20T08:45:32;5.15;;;4.75;;
7255;SDS011;3669;49.200;9.242;2022-11-20T08:48:02;5.43;;;4.93;;
7255;SDS011;3669;49.200;9.242;2022-11-20T08:50:30;5.30;;;4.90;;
7255;SDS011;3669;49.200;9.242;2022-11-20T08:53:04;4.85;;;4.45;;
7255;SDS011;3669;49.200;9.242;2022-11-20T08:55:32;5.00;;;4.60;;
7255;SDS011;3669;49.200;9.242;2022-11-20T08:58:03;5.13;;;4.72;;
7255;SDS011;3669;49.200;9.242;2022-11-20T09:00:30;4.88;;;4.38;;
7255;SDS011;3669;49.200;9.242;2022-11-20T09:02:58;5.22;;;4.80;;
7255;SDS011;3669;49.200;9.242;2022-11-20T09:05:26;5.22;;;4.82;;
7255;SDS011;3669;49.200;9.242;2022-11-20T09:07:57;4.82;;;4.43;;
7255;SDS011;3669;49.200;9.242;2022-11-20T09:10:24;4.78;;;4.38;;
7255;SDS011;3669;49.200;9.242;2022-11-20T09:12:52;4.72;;;4.13;;
7255;SDS011;3669;49.200;9.242;2022-11-20T09:15:20;4.82;;;4.38;;
7255;SDS011;3669;49.200;9.242;2022-11-20T09:17:55;4.70;;;4.30;;
7255;SDS011;3669;49.200;9.242;2022-11-20T09:20:24;4.35;;;3.95;;
7255;SDS011;3669;49.200;9.242;2022-11-20T09:22:51;4.15;;;3.85;;
7255;SDS011;3669;49.200;9.242;2022-11-20T09:25:18;4.10;;;3.78;;
7255;SDS011;3669;49.200;9.242;2022-11-20T09:27:45;4.53;;;4.13;;
7255;SDS011;3669;49.200;9.242;2022-11-20T09:30:16;4.30;;;3.95;;
7255;SDS011;3669;49.200;9.242;2022-11-20T09:32:43;4.40;;;4.10;;
7255;SDS011;3669;49.200;9.242;2022-11-20T09:35:10;3.90;;;3.60;;
7255;SDS011;3669;49.200;9.242;2022-11-20T09:37:37;4.43;;;4.10;;
7255;SDS011;3669;49.200;9.242;2022-11-20T09:40:05;4.10;;;3.80;;
7255;SDS011;3669;49.200;9.242;2022-11-20T09:42:34;3.83;;;3.58;;
7255;SDS011;3669;49.200;9.242;2022-11-20T09:47:53;4.20;;;3.80;;
7255;SDS011;3669;49.200;9.242;2022-11-20T09:50:31;3.65;;;3.45;;
7255;SDS011;3669;49.200;9.242;2022-11-20T09:53:14;4.53;;;4.22;;
7255;SDS011;3669;49.200;9.242;2022-11-20T09:55:44;3.80;;;3.50;;
7255;SDS011;3669;49.200;9.242;2022-11-20T10:00:56;3.42;;;3.22;;
7255;SDS011;3669;49.200;9.242;2022-11-20T10:03:45;4.32;;;3.40;;
7255;SDS011;3669;49.200;9.242;2022-11-20T10:06:17;4.07;;;3.78;;
7255;SDS011;3669;49.200;9.242;2022-11-20T10:08:46;14.68;;;13.88;;
7255;SDS011;3669;49.200;9.242;2022-11-20T10:11:18;4.32;;;4.03;;
7255;SDS011;3669;49.200;9.242;2022-11-20T10:14:09;4.60;;;4.20;;
7255;SDS011;3669;49.200;9.242;2022-11-20T10:16:46;4.13;;;3.80;;
7255;SDS011;3669;49.200;9.242;2022-11-20T10:19:29;4.72;;;4.15;;
7255;SDS011;3669;49.200;9.242;2022-11-20T10:24:36;27.80;;;26.40;;
7255;SDS011;3669;49.200;9.242;2022-11-20T10:29:38;45.38;;;43.03;;
7255;SDS011;3669;49.200;9.242;2022-11-20T10:32:16;22.02;;;20.83;;
7255;SDS011;3669;49.200;9.242;2022-11-20T10:35:03;33.15;;;31.45;;
7255;SDS011;3669;49.200;9.242;2022-11-20T10:37:34;30.48;;;28.95;;
7255;SDS011;3669;49.200;9.242;2022-11-20T10:40:05;35.05;;;33.20;;
7255;SDS011;3669;49.200;9.242;2022-11-20T10:42:52;26.02;;;24.65;;
7255;SDS011;3669;49.200;9.242;2022-11-20T11:01:11;18.50;;;17.55;;
7255;SDS011;3669;49.200;9.242;2022-11-20T11:03:40;33.83;;;31.80;;
7255;SDS011;3669;49.200;9.242;2022-11-20T11:08:51;39.83;;;37.80;;
7255;SDS011;3669;49.200;9.242;2022-11-20T11:11:23;18.15;;;17.15;;
7255;SDS011;3669;49.200;9.242;2022-11-20T11:13:51;4.05;;;3.42;;
7255;SDS011;3669;49.200;9.242;2022-11-20T11:16:22;4.20;;;3.90;;
7255;SDS011;3669;49.200;9.242;2022-11-20T11:18:49;4.15;;;3.85;;
7255;SDS011;3669;49.200;9.242;2022-11-20T11:21:24;4.50;;;4.20;;
7255;SDS011;3669;49.200;9.242;2022-11-20T11:24:01;4.10;;;3.80;;
7255;SDS011;3669;49.200;9.242;2022-11-20T11:26:29;3.95;;;3.65;;
7255;SDS011;3669;49.200;9.242;2022-11-20T11:28:58;4.10;;;3.80;;
7255;SDS011;3669;49.200;9.242;2022-11-20T11:34:03;4.30;;;4.00;;
7255;SDS011;3669;49.200;9.242;2022-11-20T11:36:31;3.97;;;3.78;;
7255;SDS011;3669;49.200;9.242;2022-11-20T11:39:00;4.30;;;4.00;;
7255;SDS011;3669;49.200;9.242;2022-11-20T11:41:32;4.00;;;3.70;;
7255;SDS011;3669;49.200;9.242;2022-11-20T11:44:14;4.43;;;4.13;;
7255;SDS011;3669;49.200;9.242;2022-11-20T11:47:01;4.20;;;3.80;;
7255;SDS011;3669;49.200;9.242;2022-11-20T11:49:29;4.10;;;3.70;;
7255;SDS011;3669;49.200;9.242;2022-11-20T11:52:04;4.70;;;4.28;;
7255;SDS011;3669;49.200;9.242;2022-11-20T11:57:11;5.22;;;4.07;;
7255;SDS011;3669;49.200;9.242;2022-11-20T11:59:43;4.60;;;4.20;;
7255;SDS011;3669;49.200;9.242;2022-11-20T12:02:24;4.47;;;4.05;;
7255;SDS011;3669;49.200;9.242;2022-11-20T12:04:56;4.28;;;3.97;;
7255;SDS011;3669;49.200;9.242;2022-11-20T12:07:33;4.50;;;4.20;;
7255;SDS011;3669;49.200;9.242;2022-11-20T12:10:05;4.32;;;4.03;;
7255;SDS011;3669;49.200;9.242;2022-11-20T12:12:36;4.40;;;4.00;;
7255;SDS011;3669;49.200;9.242;2022-11-20T12:15:04;4.57;;;4.18;;
7255;SDS011;3669;49.200;9.242;2022-11-20T12:17:31;4.13;;;3.83;;
7255;SDS011;3669;49.200;9.242;2022-11-20T12:20:02;8.45;;;7.65;;
7255;SDS011;3669;49.200;9.242;2022-11-20T12:22:33;37.00;;;35.15;;
7255;SDS011;3669;49.200;9.242;2022-11-20T12:27:43;12.23;;;11.38;;
7255;SDS011;3669;49.200;9.242;2022-11-20T12:30:18;5.05;;;4.55;;
7255;SDS011;3669;49.200;9.242;2022-11-20T12:44:04;4.72;;;4.22;;
7255;SDS011;3669;49.200;9.242;2022-11-20T12:46:43;14.85;;;13.85;;
7255;SDS011;3669;49.200;9.242;2022-11-20T12:54:28;4.28;;;3.88;;
7255;SDS011;3669;49.200;9.242;2022-11-20T12:57:08;4.65;;;4.25;;
7255;SDS011;3669;49.200;9.242;2022-11-20T13:07:13;4.57;;;4.18;;
7255;SDS011;3669;49.200;9.242;2022-11-20T13:09:46;4.45;;;4.13;;
7255;SDS011;3669;49.200;9.242;2022-11-20T13:12:16;3.97;;;3.60;;
7255;SDS011;3669;49.200;9.242;2022-11-20T13:15:06;4.43;;;4.03;;
7255;SDS011;3669;49.200;9.242;2022-11-20T13:17:48;6.97;;;4.18;;
7255;SDS011;3669;49.200;9.242;2022-11-20T13:20:19;5.82;;;4.20;;
7255;SDS011;3669;49.200;9.242;2022-11-20T13:22:48;4.97;;;4.55;;
7255;SDS011;3669;49.200;9.242;2022-11-20T13:28:05;4.80;;;4.40;;
7255;SDS011;3669;49.200;9.242;2022-11-20T13:30:49;6.68;;;4.65;;
7255;SDS011;3669;49.200;9.242;2022-11-20T13:33:30;7.10;;;3.92;;
7255;SDS011;3669;49.200;9.242;2022-11-20T13:35:59;4.30;;;3.90;;
7255;SDS011;3669;49.200;9.242;2022-11-20T13:38:27;3.85;;;3.55;;
7255;SDS011;3669;49.200;9.242;2022-11-20T13:40:58;4.50;;;4.10;;
7255;SDS011;3669;49.200;9.242;2022-11-20T13:43:46;4.28;;;3.90;;
7255;SDS011;3669;49.200;9.242;2022-11-20T13:46:14;4.15;;;3.60;;
7255;SDS011;3669;49.200;9.242;2022-11-20T13:48:45;3.80;;;3.50;;
7255;SDS011;3669;49.200;9.242;2022-11-20T14:01:45;4.45;;;4.03;;
7255;SDS011;3669;49.200;9.242;2022-11-20T14:04:14;4.97;;;3.20;;
7255;SDS011;3669;49.200;9.242;2022-11-20T14:06:43;4.50;;;3.50;;
7255;SDS011;3669;49.200;9.242;2022-11-20T14:09:32;4.70;;;3.30;;
7255;SDS011;3669;49.200;9.242;2022-11-20T14:11:58;4.03;;;2.95;;
7255;SDS011;3669;49.200;9.242;2022-11-20T14:14:25;2.90;;;2.70;;
7255;SDS011;3669;49.200;9.242;2022-11-20T14:17:03;5.70;;;4.00;;
7255;SDS011;3669;49.200;9.242;2022-11-20T14:19:32;43.08;;;40.40;;
7255;SDS011;3669;49.200;9.242;2022-11-20T14:22:10;9.05;;;8.38;;
7255;SDS011;3669;49.200;9.242;2022-11-20T14:24:42;9.15;;;7.93;;
7255;SDS011;3669;49.200;9.242;2022-11-20T14:27:19;3.85;;;3.45;;
7255;SDS011;3669;49.200;9.242;2022-11-20T14:29:46;3.17;;;2.88;;
7255;SDS011;3669;49.200;9.242;2022-11-20T14:32:17;4.50;;;3.20;;
7255;SDS011;3669;49.200;9.242;2022-11-20T14:34:45;3.92;;;2.60;;
7255;SDS011;3669;49.200;9.242;2022-11-20T14:37:13;5.10;;;2.90;;
7255;SDS011;3669;49.200;9.242;2022-11-20T14:39:49;3.15;;;2.85;;
7255;SDS011;3669;49.200;9.242;2022-11-20T14:42:18;6.13;;;4.13;;
7255;SDS011;3669;49.200;9.242;2022-11-20T14:44:45;5.35;;;4.75;;
7255;SDS011;3669;49.200;9.242;2022-11-20T14:47:13;4.70;;;4.05;;
7255;SDS011;3669;49.200;9.242;2022-11-20T14:49:41;7.05;;;3.47;;
7255;SDS011;3669;49.200;9.242;2022-11-20T14:52:15;3.13;;;2.80;;
7255;SDS011;3669;49.200;9.242;2022-11-20T14:54:47;2.88;;;2.30;;
7255;SDS011;3669;49.200;9.242;2022-11-20T14:57:25;4.65;;;2.50;;
7255;SDS011;3669;49.200;9.242;2022-11-20T15:02:43;2.72;;;2.53;;
7255;SDS011;3669;49.200;9.242;2022-11-20T15:05:11;5.50;;;3.00;;
7255;SDS011;3669;49.200;9.242;2022-11-20T15:07:39;3.15;;;2.58;;
7255;SDS011;3669;49.200;9.242;2022-11-20T15:10:24;4.13;;;2.70;;
7255;SDS011;3669;49.200;9.242;2022-11-20T15:12:55;2.95;;;2.65;;
7255;SDS011;3669;49.200;9.242;2022-11-20T15:15:29;3.55;;;2.80;;
7255;SDS011;3669;49.200;9.242;2022-11-20T15:17:57;3.10;;;2.60;;
7255;SDS011;3669;49.200;9.242;2022-11-20T15:20:25;4.20;;;2.90;;
7255;SDS011;3669;49.200;9.242;2022-11-20T15:22:53;3.92;;;3.00;;
7255;SDS011;3669;49.200;9.242;2022-11-20T15:25:20;3.10;;;2.80;;
7255;SDS011;3669;49.200;9.242;2022-11-20T15:27:51;4.18;;;2.70;;
7255;SDS011;3669;49.200;9.242;2022-11-20T15:30:20;6.10;;;3.20;;
7255;SDS011;3669;49.200;9.242;2022-11-20T15:32:47;3.20;;;2.92;;
7255;SDS011;3669;49.200;9.242;2022-11-20T15:35:15;7.05;;;2.95;;
7255;SDS011;3669;49.200;9.242;2022-11-20T15:37:42;3.42;;;2.72;;
7255;SDS011;3669;49.200;9.242;2022-11-20T15:40:10;10.55;;;3.70;;
7255;SDS011;3669;49.200;9.242;2022-11-20T15:42:37;4.40;;;3.72;;
7255;SDS011;3669;49.200;9.242;2022-11-20T15:45:24;4.72;;;3.70;;
7255;SDS011;3669;49.200;9.242;2022-11-20T15:47:51;5.25;;;4.00;;
7255;SDS011;3669;49.200;9.242;2022-11-20T15:50:18;4.95;;;4.13;;
7255;SDS011;3669;49.200;9.242;2022-11-20T15:52:45;4.93;;;3.90;;
7255;SDS011;3669;49.200;9.242;2022-11-20T15:55:12;4.40;;;4.00;;
7255;SDS011;3669;49.200;9.242;2022-11-20T15:57:39;6.57;;;3.70;;
7255;SDS011;3669;49.200;9.242;2022-11-20T16:00:06;4.95;;;3.63;;
7255;SDS011;3669;49.200;9.242;2022-11-20T16:02:34;5.30;;;3.80;;
7255;SDS011;3669;49.200;9.242;2022-11-20T16:05:01;4.95;;;3.90;;
7255;SDS011;3669;49.200;9.242;2022-11-20T16:07:28;6.45;;;3.85;;
7255;SDS011;3669;49.200;9.242;2022-11-20T16:09:55;5.05;;;4.20;;
7255;SDS011;3669;49.200;9.242;2022-11-20T16:12:23;7.15;;;4.25;;
7255;SDS011;3669;49.200;9.242;2022-11-20T16:15:08;5.07;;;4.22;;
7255;SDS011;3669;49.200;9.242;2022-11-20T16:17:54;6.93;;;4.45;;
7255;SDS011;3669;49.200;9.242;2022-11-20T16:20:21;8.48;;;6.40;;
7255;SDS011;3669;49.200;9.242;2022-11-20T16:22:48;9.18;;;5.50;;
7255;SDS011;3669;49.200;9.242;2022-11-20T16:25:15;6.32;;;4.63;;
7255;SDS011;3669;49.200;9.242;2022-11-20T16:27:42;5.97;;;4.55;;
7255;SDS011;3669;49.200;9.242;2022-11-20T16:30:09;4.80;;;3.40;;
7255;SDS011;3669;49.200;9.242;2022-11-20T16:32:36;4.10;;;3.17;;
7255;SDS011;3669;49.200;9.242;2022-11-20T16:35:04;5.65;;;3.25;;
7255;SDS011;3669;49.200;9.242;2022-11-20T16:37:33;5.20;;;3.63;;
7255;SDS011;3669;49.200;9.242;2022-11-20T16:40:00;5.85;;;3.67;;
7255;SDS011;3669;49.200;9.242;2022-11-20T16:42:27;4.57;;;4.10;;
7255;SDS011;3669;49.200;9.242;2022-11-20T16:44:54;5.13;;;4.03;;
7255;SDS011;3669;49.200;9.242;2022-11-20T16:47:21;5.95;;;3.78;;